createdAt,value
2022-12-31T00:00:05.824Z,44.0
2022-12-31T00:02:36.934Z,44.0
2022-12-31T00:05:18.099Z,44.0
2022-12-31T00:10:19.004Z,43.0
2022-12-31T00:12:49.746Z,44.0
2022-12-31T00:15:20.508Z,43.0
2022-12-31T00:18:01.254Z,43.0
2022-12-31T00:20:32.011Z,43.0
2022-12-31T00:23:02.764Z,43.0
2022-12-31T00:25:33.543Z,43.0
2022-12-31T00:28:04.326Z,43.0
2022-12-31T00:30:35.151Z,43.0
2022-12-31T00:33:16.112Z,43.0
2022-12-31T00:35:46.879Z,43.0
2022-12-31T00:38:17.652Z,43.0
2022-12-31T00:40:48.530Z,43.0
2022-12-31T00:43:19.296Z,43.0
2022-12-31T00:45:50.161Z,43.0
2022-12-31T00:51:01.171Z,43.0
2022-12-31T00:53:31.925Z,43.0
2022-12-31T00:56:02.697Z,43.0
2022-12-31T00:58:33.451Z,43.0
2022-12-31T01:01:04.298Z,43.0
2022-12-31T01:03:45.406Z,43.0
2022-12-31T01:06:16.160Z,43.0
2022-12-31T01:08:46.933Z,43.0
2022-12-31T01:11:17.730Z,43.0
2022-12-31T01:13:48.503Z,43.0
2022-12-31T01:16:19.349Z,43.0
2022-12-31T01:19:00.149Z,43.0
2022-12-31T01:21:30.906Z,43.0
2022-12-31T01:24:01.685Z,43.0
2022-12-31T01:26:32.423Z,43.0
2022-12-31T01:31:43.341Z,43.0
2022-12-31T01:34:14.128Z,43.0
2022-12-31T01:36:44.882Z,43.0
2022-12-31T01:39:15.640Z,43.0
2022-12-31T01:41:46.381Z,43.0
2022-12-31T01:44:17.153Z,43.0
2022-12-31T01:46:57.933Z,43.0
2022-12-31T01:49:28.699Z,43.0
2022-12-31T01:51:59.472Z,43.0
2022-12-31T01:54:30.237Z,43.0
2022-12-31T01:57:01.041Z,43.0
2022-12-31T01:59:31.813Z,42.0
2022-12-31T02:02:12.829Z,43.0
2022-12-31T02:04:43.989Z,43.0
2022-12-31T02:07:14.805Z,43.0
2022-12-31T02:12:15.772Z,42.0
2022-12-31T02:14:46.519Z,42.0
2022-12-31T02:17:27.251Z,42.0
2022-12-31T02:19:58.027Z,42.0
2022-12-31T02:22:29.062Z,42.0
2022-12-31T02:25:00.151Z,42.0
2022-12-31T02:27:30.934Z,42.0
2022-12-31T02:30:01.697Z,42.0
2022-12-31T02:32:42.469Z,42.0
2022-12-31T02:35:13.266Z,42.0
2022-12-31T02:37:44.031Z,42.0
2022-12-31T02:40:14.810Z,42.0
2022-12-31T02:42:47.407Z,42.0
2022-12-31T02:45:32.326Z,42.0
2022-12-31T02:48:03.079Z,42.0
2022-12-31T02:53:04.015Z,42.0
2022-12-31T02:55:34.809Z,42.0
2022-12-31T02:58:05.566Z,42.0
2022-12-31T03:00:46.433Z,42.0
2022-12-31T03:03:17.331Z,42.0
2022-12-31T03:05:48.099Z,42.0
2022-12-31T03:08:18.877Z,42.0
2022-12-31T03:10:49.705Z,42.0
2022-12-31T03:13:20.453Z,42.0
2022-12-31T03:16:01.352Z,41.0
2022-12-31T03:18:32.168Z,41.0
2022-12-31T03:21:02.983Z,41.0
2022-12-31T03:23:33.762Z,41.0
2022-12-31T03:26:04.512Z,41.0
2022-12-31T03:28:35.287Z,41.0
2022-12-31T03:33:46.216Z,41.0
2022-12-31T03:36:17.084Z,41.0
2022-12-31T03:38:52.528Z,41.0
2022-12-31T03:41:13.446Z,41.0
2022-12-31T03:43:54.222Z,41.0
2022-12-31T03:46:25.111Z,41.0
2022-12-31T03:48:55.862Z,41.0
2022-12-31T03:51:26.641Z,41.0
2022-12-31T03:53:57.382Z,41.0
2022-12-31T03:56:28.201Z,41.0
2022-12-31T03:59:09.005Z,41.0
2022-12-31T04:01:40.083Z,42.0
2022-12-31T04:04:10.952Z,41.0
2022-12-31T04:06:41.709Z,42.0
2022-12-31T04:09:12.467Z,41.0
2022-12-31T04:14:23.390Z,41.0
2022-12-31T04:16:54.191Z,42.0
2022-12-31T04:19:24.931Z,41.0
2022-12-31T04:21:55.788Z,41.0
2022-12-31T04:24:26.563Z,41.0
2022-12-31T04:27:00.822Z,41.0
2022-12-31T04:29:44.383Z,41.0
2022-12-31T04:32:15.224Z,41.0
2022-12-31T04:34:46.060Z,41.0
2022-12-31T04:37:16.797Z,41.0
2022-12-31T04:42:17.720Z,41.0
2022-12-31T04:44:58.520Z,41.0
2022-12-31T04:47:34.079Z,41.0
2022-12-31T04:49:54.835Z,41.0
2022-12-31T04:54:56.053Z,41.0
2022-12-31T04:57:26.834Z,41.0
2022-12-31T05:00:07.608Z,41.0
2022-12-31T05:02:38.826Z,41.0
2022-12-31T05:05:10.059Z,41.0
2022-12-31T05:07:40.841Z,41.0
2022-12-31T05:10:11.637Z,41.0
2022-12-31T05:12:52.441Z,41.0
2022-12-31T05:15:23.286Z,41.0
2022-12-31T05:17:54.073Z,41.0
2022-12-31T05:20:24.835Z,41.0
2022-12-31T05:22:55.605Z,41.0
2022-12-31T05:25:26.312Z,41.0
2022-12-31T05:28:07.112Z,41.0
2022-12-31T05:30:38.051Z,41.0
2022-12-31T05:35:39.046Z,41.0
2022-12-31T05:38:09.805Z,41.0
2022-12-31T05:43:20.737Z,41.0
2022-12-31T05:45:52.000Z,41.0
2022-12-31T05:48:22.899Z,41.0
2022-12-31T05:50:53.679Z,41.0
2022-12-31T05:53:24.418Z,41.0
2022-12-31T05:55:55.197Z,41.0
2022-12-31T05:58:35.989Z,41.0
2022-12-31T06:01:07.057Z,40.0
2022-12-31T06:03:38.001Z,40.0
2022-12-31T06:06:08.847Z,40.0
2022-12-31T06:08:39.606Z,40.0
2022-12-31T06:11:10.447Z,40.0
2022-12-31T06:16:21.498Z,40.0
2022-12-31T06:18:52.312Z,40.0
2022-12-31T06:21:23.088Z,40.0
2022-12-31T06:23:53.836Z,40.0
2022-12-31T06:26:34.675Z,40.0
2022-12-31T06:29:05.458Z,40.0
2022-12-31T06:31:36.376Z,40.0
2022-12-31T06:34:07.204Z,40.0
2022-12-31T06:36:37.980Z,40.0
2022-12-31T06:39:08.846Z,41.0
2022-12-31T06:41:49.635Z,40.0
2022-12-31T06:44:20.421Z,40.0
2022-12-31T06:46:51.329Z,41.0
2022-12-31T06:49:22.120Z,41.0
2022-12-31T06:51:52.883Z,41.0
2022-12-31T06:57:03.820Z,40.0
2022-12-31T06:59:34.612Z,41.0
2022-12-31T07:02:05.608Z,40.0
2022-12-31T07:04:36.587Z,40.0
2022-12-31T07:07:07.351Z,40.0
2022-12-31T07:09:38.121Z,40.0
2022-12-31T07:12:18.903Z,40.0
2022-12-31T07:14:49.644Z,40.0
2022-12-31T07:17:20.419Z,40.0
2022-12-31T07:19:57.247Z,40.0
2022-12-31T07:22:28.271Z,40.0
2022-12-31T07:25:09.076Z,40.0
2022-12-31T07:27:39.859Z,40.0
2022-12-31T07:30:10.610Z,41.0
2022-12-31T07:32:41.376Z,41.0
2022-12-31T07:37:42.307Z,41.0
2022-12-31T07:40:23.143Z,40.0
2022-12-31T07:42:53.904Z,40.0
2022-12-31T07:45:24.664Z,40.0
2022-12-31T07:47:58.960Z,40.0
2022-12-31T07:50:22.875Z,40.0
2022-12-31T07:52:53.609Z,40.0
2022-12-31T07:55:34.407Z,40.0
2022-12-31T07:58:05.173Z,40.0
2022-12-31T08:00:36.134Z,40.0
2022-12-31T08:03:07.056Z,40.0
2022-12-31T08:05:38.012Z,40.0
2022-12-31T08:08:08.757Z,40.0
2022-12-31T08:10:49.594Z,40.0
2022-12-31T08:13:20.403Z,40.0
2022-12-31T08:18:21.353Z,40.0
2022-12-31T08:20:52.123Z,40.0
2022-12-31T08:23:22.859Z,41.0
2022-12-31T08:26:03.664Z,41.0
2022-12-31T08:28:34.442Z,40.0
2022-12-31T08:31:05.164Z,40.0
2022-12-31T08:33:36.011Z,41.0
2022-12-31T08:36:06.820Z,41.0
2022-12-31T08:38:47.609Z,41.0
2022-12-31T08:41:18.389Z,40.0
2022-12-31T08:43:49.146Z,41.0
2022-12-31T08:46:20.034Z,41.0
2022-12-31T08:48:50.981Z,41.0
2022-12-31T08:51:21.803Z,41.0
2022-12-31T08:54:02.572Z,41.0
2022-12-31T08:59:03.466Z,41.0
2022-12-31T09:01:34.424Z,41.0
2022-12-31T09:04:05.420Z,41.0
2022-12-31T09:06:36.251Z,40.0
2022-12-31T09:09:17.013Z,41.0
2022-12-31T09:11:47.870Z,41.0
2022-12-31T09:14:18.641Z,40.0
2022-12-31T09:16:49.505Z,40.0
2022-12-31T09:19:20.370Z,40.0
2022-12-31T09:21:51.145Z,40.0
2022-12-31T09:24:31.908Z,40.0
2022-12-31T09:27:02.712Z,40.0
2022-12-31T09:29:33.455Z,40.0
2022-12-31T09:32:04.358Z,40.0
2022-12-31T09:34:35.137Z,40.0
2022-12-31T09:39:46.074Z,40.0
2022-12-31T09:42:16.844Z,40.0
2022-12-31T09:44:47.624Z,40.0
2022-12-31T09:47:18.431Z,40.0
2022-12-31T09:49:49.338Z,41.0
2022-12-31T09:52:30.078Z,41.0
2022-12-31T09:55:01.039Z,41.0
2022-12-31T09:57:31.826Z,41.0
2022-12-31T10:00:02.622Z,42.0
2022-12-31T10:02:33.811Z,42.0
2022-12-31T10:05:04.935Z,42.0
2022-12-31T10:07:50.500Z,42.0
2022-12-31T10:10:13.190Z,42.0
2022-12-31T10:12:43.971Z,42.0
2022-12-31T10:15:14.736Z,42.0
2022-12-31T10:20:15.651Z,42.0
2022-12-31T10:22:56.463Z,42.0
2022-12-31T10:25:37.858Z,42.0
2022-12-31T10:28:01.619Z,42.0
2022-12-31T10:30:32.484Z,42.0
2022-12-31T10:33:03.434Z,42.0
2022-12-31T10:35:34.194Z,42.0
2022-12-31T10:38:14.976Z,42.0
2022-12-31T10:40:45.743Z,42.0
2022-12-31T10:43:16.500Z,42.0
2022-12-31T10:45:47.328Z,42.0
2022-12-31T10:48:18.158Z,42.0
2022-12-31T10:50:48.904Z,42.0
2022-12-31T10:53:29.618Z,42.0
2022-12-31T10:56:00.406Z,42.0
2022-12-31T11:01:01.408Z,42.0
2022-12-31T11:03:39.332Z,42.0
2022-12-31T11:06:10.201Z,43.0
2022-12-31T11:08:40.975Z,43.0
2022-12-31T11:11:11.750Z,42.0
2022-12-31T11:13:42.515Z,43.0
2022-12-31T11:16:13.386Z,43.0
2022-12-31T11:18:44.259Z,43.0
2022-12-31T11:21:28.375Z,43.0
2022-12-31T11:24:02.245Z,43.0
2022-12-31T11:26:33.002Z,43.0
2022-12-31T11:29:03.784Z,43.0
2022-12-31T11:31:34.686Z,43.0
2022-12-31T11:34:05.486Z,43.0
2022-12-31T11:36:46.308Z,43.0
2022-12-31T11:41:47.231Z,44.0
2022-12-31T11:44:18.023Z,44.0
2022-12-31T11:46:48.943Z,44.0
2022-12-31T11:49:19.777Z,44.0
2022-12-31T11:52:01.166Z,44.0
2022-12-31T11:54:21.912Z,44.0
2022-12-31T11:59:32.841Z,44.0
2022-12-31T12:02:03.825Z,44.0
2022-12-31T12:04:44.595Z,44.0
2022-12-31T12:07:15.375Z,44.0
2022-12-31T12:09:46.146Z,44.0
2022-12-31T12:12:16.920Z,44.0
2022-12-31T12:14:47.680Z,44.0
2022-12-31T12:17:18.460Z,44.0
2022-12-31T12:22:29.362Z,44.0
2022-12-31T12:25:00.172Z,45.0
2022-12-31T12:27:30.927Z,45.0
2022-12-31T12:30:01.708Z,45.0
2022-12-31T12:32:32.557Z,45.0
2022-12-31T12:35:13.337Z,45.0
2022-12-31T12:37:44.075Z,46.0
2022-12-31T12:40:14.841Z,46.0
2022-12-31T12:42:43.883Z,45.0
2022-12-31T12:45:14.643Z,45.0
2022-12-31T12:47:45.460Z,45.0
2022-12-31T12:50:26.233Z,45.0
2022-12-31T12:52:59.473Z,45.0
2022-12-31T12:55:20.487Z,46.0
2022-12-31T12:57:51.233Z,46.0
2022-12-31T13:03:02.355Z,46.0
2022-12-31T13:05:38.240Z,46.0
2022-12-31T13:08:09.015Z,46.0
2022-12-31T13:10:39.826Z,46.0
2022-12-31T13:13:35.367Z,46.0
2022-12-31T13:15:46.131Z,46.0
2022-12-31T13:18:26.985Z,46.0
2022-12-31T13:20:57.720Z,46.0
2022-12-31T13:23:28.531Z,46.0
2022-12-31T13:28:20.804Z,46.0
2022-12-31T13:30:51.589Z,46.0
2022-12-31T13:33:37.049Z,46.0
2022-12-31T13:36:07.805Z,46.0
2022-12-31T13:38:38.587Z,46.0
2022-12-31T13:43:39.491Z,46.0
2022-12-31T13:46:11.880Z,46.0
2022-12-31T13:48:52.695Z,47.0
2022-12-31T13:51:23.507Z,46.0
2022-12-31T13:53:54.489Z,46.0
2022-12-31T13:56:25.259Z,46.0
2022-12-31T13:58:55.981Z,46.0
2022-12-31T14:01:30.802Z,46.0
2022-12-31T14:04:04.328Z,46.0
2022-12-31T14:06:35.101Z,46.0
2022-12-31T14:09:05.829Z,46.0
2022-12-31T14:11:36.619Z,46.0
2022-12-31T14:14:07.364Z,46.0
2022-12-31T14:16:38.210Z,46.0
2022-12-31T14:19:19.059Z,46.0
2022-12-31T14:24:24.938Z,46.0
2022-12-31T14:26:55.694Z,46.0
2022-12-31T14:29:26.454Z,46.0
2022-12-31T14:32:07.345Z,46.0
2022-12-31T14:34:38.099Z,46.0
2022-12-31T14:37:08.896Z,46.0
2022-12-31T14:39:39.669Z,46.0
2022-12-31T14:42:10.448Z,46.0
2022-12-31T14:44:41.204Z,46.0
2022-12-31T14:47:21.988Z,46.0
2022-12-31T14:49:52.726Z,46.0
2022-12-31T14:52:23.650Z,46.0
2022-12-31T14:54:54.421Z,46.0
2022-12-31T14:57:25.164Z,46.0
2022-12-31T14:59:52.252Z,46.0
2022-12-31T15:05:03.289Z,45.0
2022-12-31T15:07:34.064Z,45.0
2022-12-31T15:10:04.822Z,45.0
2022-12-31T15:12:35.589Z,45.0
2022-12-31T15:15:06.374Z,45.0
2022-12-31T15:17:47.139Z,45.0
2022-12-31T15:20:25.195Z,45.0
2022-12-31T15:22:45.939Z,44.0
2022-12-31T15:25:16.804Z,44.0
2022-12-31T15:27:47.582Z,44.0
2022-12-31T15:30:28.376Z,44.0
2022-12-31T15:32:59.178Z,44.0
2022-12-31T15:35:29.937Z,44.0
2022-12-31T15:38:00.697Z,44.0
2022-12-31T15:40:31.508Z,44.0
2022-12-31T15:45:42.488Z,44.0
2022-12-31T15:48:13.368Z,44.0
2022-12-31T15:50:44.146Z,44.0
2022-12-31T15:53:14.909Z,44.0
2022-12-31T15:55:45.695Z,44.0
2022-12-31T16:00:56.754Z,44.0
2022-12-31T16:03:28.018Z,44.0
2022-12-31T16:05:58.895Z,44.0
2022-12-31T16:08:29.650Z,44.0
2022-12-31T16:11:00.443Z,44.0
2022-12-31T16:13:31.171Z,44.0
2022-12-31T16:16:11.973Z,44.0
2022-12-31T16:18:42.820Z,43.0
2022-12-31T16:21:13.616Z,42.0
2022-12-31T16:26:14.593Z,43.0
2022-12-31T16:28:45.346Z,43.0
2022-12-31T16:31:26.214Z,43.0
2022-12-31T16:33:57.063Z,43.0
2022-12-31T16:36:27.856Z,42.0
2022-12-31T16:38:58.663Z,43.0
2022-12-31T16:41:29.508Z,43.0
2022-12-31T16:44:10.295Z,43.0
2022-12-31T16:46:41.303Z,42.0
2022-12-31T16:49:12.154Z,42.0
2022-12-31T16:51:42.947Z,43.0
2022-12-31T16:54:18.532Z,43.0
2022-12-31T16:56:49.506Z,43.0
2022-12-31T16:59:35.538Z,43.0
2022-12-31T17:01:56.699Z,43.0
2022-12-31T17:06:58.028Z,43.0
2022-12-31T17:09:28.777Z,43.0
2022-12-31T17:11:59.611Z,43.0
2022-12-31T17:14:40.384Z,43.0
2022-12-31T17:17:13.803Z,43.0
2022-12-31T17:19:44.601Z,43.0
2022-12-31T17:22:15.378Z,43.0
2022-12-31T17:24:44.787Z,43.0
2022-12-31T17:27:15.619Z,43.0
2022-12-31T17:29:56.448Z,43.0
2022-12-31T17:32:27.272Z,43.0
2022-12-31T17:34:58.087Z,43.0
2022-12-31T17:37:28.976Z,43.0
2022-12-31T17:40:10.841Z,43.0
2022-12-31T17:47:42.074Z,42.0
2022-12-31T17:50:12.868Z,43.0
2022-12-31T17:52:43.626Z,43.0
2022-12-31T17:55:14.480Z,42.0
2022-12-31T17:57:55.262Z,43.0
2022-12-31T18:00:26.055Z,43.0
2022-12-31T18:02:57.045Z,43.0
2022-12-31T18:05:27.869Z,42.0
2022-12-31T18:07:58.656Z,42.0
2022-12-31T18:10:29.468Z,43.0
2022-12-31T18:13:10.254Z,43.0
2022-12-31T18:15:41.047Z,43.0
2022-12-31T18:18:11.797Z,43.0
2022-12-31T18:20:46.141Z,43.0
2022-12-31T18:23:16.891Z,43.0
2022-12-31T18:28:27.802Z,43.0
2022-12-31T18:30:58.588Z,43.0
2022-12-31T18:33:29.669Z,43.0
2022-12-31T18:36:18.967Z,43.0
2022-12-31T18:38:29.842Z,43.0
2022-12-31T18:41:00.619Z,43.0
2022-12-31T18:43:41.398Z,43.0
2022-12-31T18:46:12.204Z,43.0
2022-12-31T18:48:42.995Z,43.0
2022-12-31T18:51:13.791Z,43.0
2022-12-31T18:53:41.614Z,43.0
2022-12-31T18:58:52.554Z,43.0
2022-12-31T19:01:23.567Z,43.0
2022-12-31T19:03:54.631Z,43.0
2022-12-31T19:08:55.521Z,43.0
2022-12-31T19:11:44.037Z,43.0
2022-12-31T19:14:14.798Z,43.0
2022-12-31T19:16:45.732Z,43.0
2022-12-31T19:19:18.999Z,43.0
2022-12-31T19:21:39.770Z,43.0
2022-12-31T19:24:10.524Z,43.0
2022-12-31T19:26:53.772Z,43.0
2022-12-31T19:29:24.537Z,43.0
2022-12-31T19:31:55.422Z,43.0
2022-12-31T19:34:26.329Z,43.0
2022-12-31T19:36:57.130Z,43.0
2022-12-31T19:39:27.895Z,43.0
2022-12-31T19:42:09.868Z,43.0
2022-12-31T19:44:40.607Z,43.0
2022-12-31T19:49:41.533Z,43.0
2022-12-31T19:52:12.301Z,43.0
2022-12-31T19:54:43.063Z,43.0
2022-12-31T19:57:23.856Z,43.0
2022-12-31T19:59:54.707Z,43.0
2022-12-31T20:02:26.064Z,43.0
2022-12-31T20:04:57.189Z,43.0
2022-12-31T20:07:32.396Z,43.0
2022-12-31T20:10:03.164Z,43.0
2022-12-31T20:15:14.112Z,43.0
2022-12-31T20:17:34.847Z,43.0
2022-12-31T20:20:15.686Z,43.0
2022-12-31T20:22:46.431Z,43.0
2022-12-31T20:25:27.257Z,43.0
2022-12-31T20:30:28.227Z,43.0
2022-12-31T20:32:59.070Z,43.0
2022-12-31T20:35:23.728Z,43.0
2022-12-31T20:37:54.480Z,43.0
2022-12-31T20:40:35.304Z,43.0
2022-12-31T20:43:07.800Z,44.0
2022-12-31T20:45:38.582Z,43.0
2022-12-31T20:48:09.375Z,43.0
2022-12-31T20:50:40.235Z,43.0
2022-12-31T20:53:11.009Z,43.0
2022-12-31T20:55:51.888Z,44.0
2022-12-31T20:58:22.668Z,44.0
2022-12-31T21:00:53.465Z,43.0
2022-12-31T21:04:05.689Z,43.0
2022-12-31T21:05:57.670Z,44.0
2022-12-31T21:11:08.817Z,44.0
2022-12-31T21:13:39.591Z,44.0
2022-12-31T21:16:10.469Z,44.0
2022-12-31T21:18:41.229Z,44.0
2022-12-31T21:21:12.016Z,44.0
2022-12-31T21:23:42.824Z,44.0
2022-12-31T21:26:23.661Z,44.0
2022-12-31T21:28:54.408Z,44.0
2022-12-31T21:31:25.369Z,44.0
2022-12-31T21:33:56.227Z,44.0
2022-12-31T21:36:26.999Z,44.0
2022-12-31T21:39:07.795Z,44.0
2022-12-31T21:41:43.478Z,44.0
2022-12-31T21:44:04.225Z,44.0
2022-12-31T21:46:35.046Z,44.0
2022-12-31T21:51:36.707Z,44.0
2022-12-31T21:54:17.434Z,44.0
2022-12-31T21:56:48.179Z,44.0
2022-12-31T21:59:18.950Z,44.0
2022-12-31T22:01:50.193Z,44.0
2022-12-31T22:05:02.509Z,44.0
2022-12-31T22:06:52.118Z,44.0
2022-12-31T22:09:32.868Z,44.0
2022-12-31T22:12:03.659Z,44.0
2022-12-31T22:14:34.491Z,44.0
2022-12-31T22:17:05.459Z,44.0
2022-12-31T22:19:48.591Z,44.0
2022-12-31T22:22:08.089Z,44.0
2022-12-31T22:24:48.873Z,44.0
2022-12-31T22:27:39.912Z,44.0
2022-12-31T22:32:18.282Z,44.0
2022-12-31T22:34:49.030Z,44.0
2022-12-31T22:37:58.057Z,44.0
2022-12-31T22:40:02.673Z,44.0
2022-12-31T22:42:33.430Z,44.0
2022-12-31T22:45:04.212Z,45.0
2022-12-31T22:47:34.950Z,45.0
2022-12-31T22:50:05.727Z,45.0
2022-12-31T22:52:46.495Z,45.0
2022-12-31T22:55:17.277Z,45.0
2022-12-31T22:57:48.097Z,45.0
2022-12-31T23:00:18.903Z,45.0
2022-12-31T23:02:52.581Z,45.0
2022-12-31T23:05:26.377Z,45.0
2022-12-31T23:08:15.777Z,45.0
2022-12-31T23:13:08.076Z,45.0
2022-12-31T23:15:38.876Z,45.0
2022-12-31T23:18:09.855Z,45.0
2022-12-31T23:20:40.598Z,45.0
2022-12-31T23:23:21.379Z,45.0
2022-12-31T23:25:52.154Z,45.0
2022-12-31T23:28:22.898Z,45.0
2022-12-31T23:30:53.698Z,45.0
2022-12-31T23:33:24.537Z,44.0
2022-12-31T23:35:55.321Z,45.0
2022-12-31T23:38:36.087Z,45.0
2022-12-31T23:41:06.943Z,45.0
2022-12-31T23:43:37.728Z,45.0
2022-12-31T23:46:08.536Z,44.0
2022-12-31T23:48:39.311Z,44.0
2022-12-31T23:53:50.208Z,45.0
2022-12-31T23:56:27.718Z,44.0
2022-12-31T23:58:48.481Z,45.0
